sensor_id;sensor_type;location;lat;lon;timestamp;P1;durP1;ratioP1;P2;durP2;ratioP2
9934;SDS011;5006;41.828;23.478;2023-03-04T00:00:53;6.88;;;4.32;;
9934;SDS011;5006;41.828;23.478;2023-03-04T00:01:57;5.00;;;4.10;;
9934;SDS011;5006;41.828;23.478;2023-03-04T00:03:03;6.32;;;4.50;;
9934;SDS011;5006;41.828;23.478;2023-03-04T00:04:08;6.18;;;4.40;;
9934;SDS011;5006;41.828;23.478;2023-03-04T00:05:15;7.20;;;4.20;;
9934;SDS011;5006;41.828;23.478;2023-03-04T00:06:20;6.30;;;4.65;;
9934;SDS011;5006;41.828;23.478;2023-03-04T00:07:25;5.95;;;4.25;;
9934;SDS011;5006;41.828;23.478;2023-03-04T00:08:30;7.43;;;4.70;;
9934;SDS011;5006;41.828;23.478;2023-03-04T00:09:35;7.93;;;4.05;;
9934;SDS011;5006;41.828;23.478;2023-03-04T00:10:39;5.97;;;4.18;;
9934;SDS011;5006;41.828;23.478;2023-03-04T00:11:45;5.20;;;4.22;;
9934;SDS011;5006;41.828;23.478;2023-03-04T00:12:50;4.90;;;4.40;;
9934;SDS011;5006;41.828;23.478;2023-03-04T00:13:55;6.10;;;4.97;;
9934;SDS011;5006;41.828;23.478;2023-03-04T00:15:00;5.22;;;4.72;;
9934;SDS011;5006;41.828;23.478;2023-03-04T00:16:06;7.75;;;5.30;;
9934;SDS011;5006;41.828;23.478;2023-03-04T00:17:11;5.72;;;4.57;;
9934;SDS011;5006;41.828;23.478;2023-03-04T00:18:16;6.63;;;5.05;;
9934;SDS011;5006;41.828;23.478;2023-03-04T00:19:21;5.82;;;4.82;;
9934;SDS011;5006;41.828;23.478;2023-03-04T00:20:28;6.65;;;5.63;;
9934;SDS011;5006;41.828;23.478;2023-03-04T00:21:32;8.40;;;6.07;;
9934;SDS011;5006;41.828;23.478;2023-03-04T00:22:38;7.95;;;5.68;;
9934;SDS011;5006;41.828;23.478;2023-03-04T00:23:42;6.70;;;5.38;;
9934;SDS011;5006;41.828;23.478;2023-03-04T00:24:48;6.75;;;5.80;;
9934;SDS011;5006;41.828;23.478;2023-03-04T00:25:52;7.00;;;5.28;;
9934;SDS011;5006;41.828;23.478;2023-03-04T00:26:58;12.82;;;5.15;;
9934;SDS011;5006;41.828;23.478;2023-03-04T00:28:03;7.10;;;5.93;;
9934;SDS011;5006;41.828;23.478;2023-03-04T00:29:09;6.85;;;4.97;;
9934;SDS011;5006;41.828;23.478;2023-03-04T00:30:14;7.60;;;4.75;;
9934;SDS011;5006;41.828;23.478;2023-03-04T00:31:20;6.45;;;4.97;;
9934;SDS011;5006;41.828;23.478;2023-03-04T00:32:24;5.88;;;4.40;;
9934;SDS011;5006;41.828;23.478;2023-03-04T00:33:30;8.20;;;7.10;;
9934;SDS011;5006;41.828;23.478;2023-03-04T00:34:34;8.35;;;6.78;;
9934;SDS011;5006;41.828;23.478;2023-03-04T00:35:41;8.88;;;7.15;;
9934;SDS011;5006;41.828;23.478;2023-03-04T00:36:46;9.55;;;7.43;;
9934;SDS011;5006;41.828;23.478;2023-03-04T00:37:52;8.98;;;6.95;;
9934;SDS011;5006;41.828;23.478;2023-03-04T00:38:57;9.80;;;7.50;;
9934;SDS011;5006;41.828;23.478;2023-03-04T00:40:03;9.05;;;7.75;;
9934;SDS011;5006;41.828;23.478;2023-03-04T00:41:09;6.95;;;6.25;;
9934;SDS011;5006;41.828;23.478;2023-03-04T00:42:15;5.97;;;5.32;;
9934;SDS011;5006;41.828;23.478;2023-03-04T00:43:20;6.70;;;4.75;;
9934;SDS011;5006;41.828;23.478;2023-03-04T00:44:25;7.75;;;4.85;;
9934;SDS011;5006;41.828;23.478;2023-03-04T00:45:30;6.97;;;4.60;;
9934;SDS011;5006;41.828;23.478;2023-03-04T00:46:36;8.50;;;5.40;;
9934;SDS011;5006;41.828;23.478;2023-03-04T00:47:40;6.28;;;5.18;;
9934;SDS011;5006;41.828;23.478;2023-03-04T00:48:46;8.93;;;6.40;;
9934;SDS011;5006;41.828;23.478;2023-03-04T00:49:51;6.70;;;5.60;;
9934;SDS011;5006;41.828;23.478;2023-03-04T00:50:58;5.72;;;5.10;;
9934;SDS011;5006;41.828;23.478;2023-03-04T00:52:03;7.93;;;5.22;;
9934;SDS011;5006;41.828;23.478;2023-03-04T00:53:09;7.38;;;6.00;;
9934;SDS011;5006;41.828;23.478;2023-03-04T00:54:14;8.80;;;5.90;;
9934;SDS011;5006;41.828;23.478;2023-03-04T00:55:21;8.98;;;6.03;;
9934;SDS011;5006;41.828;23.478;2023-03-04T00:56:25;12.73;;;6.80;;
9934;SDS011;5006;41.828;23.478;2023-03-04T00:57:32;7.05;;;6.32;;
9934;SDS011;5006;41.828;23.478;2023-03-04T00:58:37;10.55;;;6.43;;
9934;SDS011;5006;41.828;23.478;2023-03-04T00:59:43;7.82;;;6.10;;
9934;SDS011;5006;41.828;23.478;2023-03-04T01:00:49;9.50;;;6.38;;
9934;SDS011;5006;41.828;23.478;2023-03-04T01:01:56;9.52;;;6.35;;
9934;SDS011;5006;41.828;23.478;2023-03-04T01:03:00;8.80;;;6.57;;
9934;SDS011;5006;41.828;23.478;2023-03-04T01:04:06;9.65;;;6.93;;
9934;SDS011;5006;41.828;23.478;2023-03-04T01:05:11;7.97;;;6.95;;
9934;SDS011;5006;41.828;23.478;2023-03-04T01:06:18;9.63;;;6.78;;
9934;SDS011;5006;41.828;23.478;2023-03-04T01:07:23;9.00;;;8.00;;
9934;SDS011;5006;41.828;23.478;2023-03-04T01:08:28;9.80;;;7.93;;
9934;SDS011;5006;41.828;23.478;2023-03-04T01:09:33;10.75;;;9.20;;
9934;SDS011;5006;41.828;23.478;2023-03-04T01:10:40;10.15;;;8.68;;
9934;SDS011;5006;41.828;23.478;2023-03-04T01:11:44;11.13;;;8.20;;
9934;SDS011;5006;41.828;23.478;2023-03-04T01:12:50;11.13;;;7.43;;
9934;SDS011;5006;41.828;23.478;2023-03-04T01:13:55;10.05;;;7.30;;
9934;SDS011;5006;41.828;23.478;2023-03-04T01:15:01;9.52;;;7.95;;
9934;SDS011;5006;41.828;23.478;2023-03-04T01:16:06;8.07;;;7.28;;
9934;SDS011;5006;41.828;23.478;2023-03-04T01:17:14;11.90;;;8.38;;
9934;SDS011;5006;41.828;23.478;2023-03-04T01:18:19;9.63;;;7.85;;
9934;SDS011;5006;41.828;23.478;2023-03-04T01:19:25;8.27;;;7.20;;
9934;SDS011;5006;41.828;23.478;2023-03-04T01:20:29;10.95;;;9.07;;
9934;SDS011;5006;41.828;23.478;2023-03-04T01:21:36;11.35;;;8.77;;
9934;SDS011;5006;41.828;23.478;2023-03-04T01:22:41;13.07;;;10.10;;
9934;SDS011;5006;41.828;23.478;2023-03-04T01:23:47;11.32;;;9.05;;
9934;SDS011;5006;41.828;23.478;2023-03-04T01:24:52;10.90;;;8.73;;
9934;SDS011;5006;41.828;23.478;2023-03-04T01:25:57;10.45;;;8.02;;
9934;SDS011;5006;41.828;23.478;2023-03-04T01:27:03;7.80;;;6.00;;
9934;SDS011;5006;41.828;23.478;2023-03-04T01:28:07;9.77;;;6.63;;
9934;SDS011;5006;41.828;23.478;2023-03-04T01:29:14;8.23;;;6.32;;
9934;SDS011;5006;41.828;23.478;2023-03-04T01:30:19;9.73;;;6.45;;
9934;SDS011;5006;41.828;23.478;2023-03-04T01:31:26;6.82;;;5.70;;
9934;SDS011;5006;41.828;23.478;2023-03-04T01:32:31;7.88;;;5.90;;
9934;SDS011;5006;41.828;23.478;2023-03-04T01:33:36;6.40;;;5.80;;
9934;SDS011;5006;41.828;23.478;2023-03-04T01:34:41;7.53;;;5.70;;
9934;SDS011;5006;41.828;23.478;2023-03-04T01:35:46;7.47;;;5.45;;
9934;SDS011;5006;41.828;23.478;2023-03-04T01:36:52;7.78;;;5.95;;
9934;SDS011;5006;41.828;23.478;2023-03-04T01:37:58;7.35;;;5.55;;
9934;SDS011;5006;41.828;23.478;2023-03-04T01:39:04;8.32;;;5.53;;
9934;SDS011;5006;41.828;23.478;2023-03-04T01:40:10;6.57;;;5.22;;
9934;SDS011;5006;41.828;23.478;2023-03-04T01:41:16;6.05;;;5.03;;
9934;SDS011;5006;41.828;23.478;2023-03-04T01:42:26;7.82;;;5.60;;
9934;SDS011;5006;41.828;23.478;2023-03-04T01:43:34;5.40;;;4.60;;
9934;SDS011;5006;41.828;23.478;2023-03-04T01:44:42;9.25;;;5.93;;
9934;SDS011;5006;41.828;23.478;2023-03-04T01:45:49;8.57;;;6.10;;
9934;SDS011;5006;41.828;23.478;2023-03-04T01:46:56;8.90;;;6.55;;
9934;SDS011;5006;41.828;23.478;2023-03-04T01:48:01;9.73;;;6.00;;
9934;SDS011;5006;41.828;23.478;2023-03-04T01:49:08;8.00;;;5.80;;
9934;SDS011;5006;41.828;23.478;2023-03-04T01:50:16;8.50;;;5.88;;
9934;SDS011;5006;41.828;23.478;2023-03-04T01:51:25;12.52;;;6.60;;
9934;SDS011;5006;41.828;23.478;2023-03-04T01:52:31;8.60;;;5.88;;
9934;SDS011;5006;41.828;23.478;2023-03-04T01:53:37;8.13;;;6.28;;
9934;SDS011;5006;41.828;23.478;2023-03-04T01:54:42;9.52;;;6.35;;
9934;SDS011;5006;41.828;23.478;2023-03-04T01:55:49;11.45;;;7.80;;
9934;SDS011;5006;41.828;23.478;2023-03-04T01:56:55;10.40;;;9.25;;
9934;SDS011;5006;41.828;23.478;2023-03-04T01:58:04;9.75;;;8.25;;
9934;SDS011;5006;41.828;23.478;2023-03-04T01:59:10;10.35;;;7.15;;
9934;SDS011;5006;41.828;23.478;2023-03-04T02:00:19;10.95;;;7.50;;
9934;SDS011;5006;41.828;23.478;2023-03-04T02:01:29;8.35;;;6.90;;
9934;SDS011;5006;41.828;23.478;2023-03-04T02:02:35;10.68;;;7.15;;
9934;SDS011;5006;41.828;23.478;2023-03-04T02:03:39;9.40;;;6.80;;
9934;SDS011;5006;41.828;23.478;2023-03-04T02:04:45;9.82;;;6.47;;
9934;SDS011;5006;41.828;23.478;2023-03-04T02:05:50;8.75;;;6.50;;
9934;SDS011;5006;41.828;23.478;2023-03-04T02:06:56;8.25;;;6.68;;
9934;SDS011;5006;41.828;23.478;2023-03-04T02:08:07;10.13;;;7.15;;
9934;SDS011;5006;41.828;23.478;2023-03-04T02:09:13;7.57;;;6.50;;
9934;SDS011;5006;41.828;23.478;2023-03-04T02:10:19;8.43;;;6.57;;
9934;SDS011;5006;41.828;23.478;2023-03-04T02:11:25;7.22;;;6.00;;
9934;SDS011;5006;41.828;23.478;2023-03-04T02:12:30;9.35;;;6.40;;
9934;SDS011;5006;41.828;23.478;2023-03-04T02:13:36;9.70;;;6.07;;
9934;SDS011;5006;41.828;23.478;2023-03-04T02:14:42;8.07;;;6.20;;
9934;SDS011;5006;41.828;23.478;2023-03-04T02:15:47;7.93;;;6.22;;
9934;SDS011;5006;41.828;23.478;2023-03-04T02:16:53;9.10;;;6.68;;
9934;SDS011;5006;41.828;23.478;2023-03-04T02:17:58;7.13;;;6.05;;
9934;SDS011;5006;41.828;23.478;2023-03-04T02:19:04;6.65;;;5.88;;
9934;SDS011;5006;41.828;23.478;2023-03-04T02:21:46;9.63;;;6.20;;
9934;SDS011;5006;41.828;23.478;2023-03-04T02:22:53;8.80;;;6.00;;
9934;SDS011;5006;41.828;23.478;2023-03-04T02:24:08;9.27;;;6.03;;
9934;SDS011;5006;41.828;23.478;2023-03-04T02:25:20;6.45;;;5.57;;
9934;SDS011;5006;41.828;23.478;2023-03-04T02:26:30;9.50;;;5.70;;
9934;SDS011;5006;41.828;23.478;2023-03-04T02:27:36;8.65;;;6.10;;
9934;SDS011;5006;41.828;23.478;2023-03-04T02:28:43;9.35;;;6.30;;
9934;SDS011;5006;41.828;23.478;2023-03-04T02:29:48;8.70;;;6.15;;
9934;SDS011;5006;41.828;23.478;2023-03-04T02:30:54;8.98;;;6.28;;
9934;SDS011;5006;41.828;23.478;2023-03-04T02:31:59;7.68;;;5.93;;
9934;SDS011;5006;41.828;23.478;2023-03-04T02:33:04;8.07;;;7.22;;
9934;SDS011;5006;41.828;23.478;2023-03-04T02:34:11;8.88;;;7.60;;
9934;SDS011;5006;41.828;23.478;2023-03-04T02:35:19;8.93;;;7.70;;
9934;SDS011;5006;41.828;23.478;2023-03-04T02:36:24;7.80;;;7.10;;
9934;SDS011;5006;41.828;23.478;2023-03-04T02:37:30;11.23;;;8.27;;
9934;SDS011;5006;41.828;23.478;2023-03-04T02:38:35;10.70;;;7.18;;
9934;SDS011;5006;41.828;23.478;2023-03-04T02:39:40;9.13;;;6.50;;
9934;SDS011;5006;41.828;23.478;2023-03-04T02:40:48;8.73;;;7.82;;
9934;SDS011;5006;41.828;23.478;2023-03-04T02:41:58;9.23;;;7.20;;
9934;SDS011;5006;41.828;23.478;2023-03-04T02:43:08;8.90;;;7.32;;
9934;SDS011;5006;41.828;23.478;2023-03-04T02:44:15;10.50;;;6.90;;
9934;SDS011;5006;41.828;23.478;2023-03-04T02:45:33;10.43;;;7.93;;
9934;SDS011;5006;41.828;23.478;2023-03-04T02:46:41;8.10;;;7.28;;
9934;SDS011;5006;41.828;23.478;2023-03-04T02:47:47;8.93;;;7.18;;
9934;SDS011;5006;41.828;23.478;2023-03-04T02:48:52;9.48;;;6.82;;
9934;SDS011;5006;41.828;23.478;2023-03-04T02:49:58;8.45;;;6.57;;
9934;SDS011;5006;41.828;23.478;2023-03-04T02:51:02;7.35;;;6.55;;
9934;SDS011;5006;41.828;23.478;2023-03-04T02:52:12;9.23;;;6.60;;
9934;SDS011;5006;41.828;23.478;2023-03-04T02:53:18;8.25;;;5.78;;
9934;SDS011;5006;41.828;23.478;2023-03-04T02:54:24;7.60;;;6.18;;
9934;SDS011;5006;41.828;23.478;2023-03-04T02:55:30;8.18;;;7.05;;
9934;SDS011;5006;41.828;23.478;2023-03-04T02:56:36;10.00;;;7.10;;
9934;SDS011;5006;41.828;23.478;2023-03-04T02:57:42;9.07;;;6.40;;
9934;SDS011;5006;41.828;23.478;2023-03-04T02:58:47;8.32;;;6.95;;
9934;SDS011;5006;41.828;23.478;2023-03-04T02:59:53;7.90;;;6.30;;
9934;SDS011;5006;41.828;23.478;2023-03-04T03:01:00;7.95;;;6.45;;
9934;SDS011;5006;41.828;23.478;2023-03-04T03:02:07;8.10;;;6.70;;
9934;SDS011;5006;41.828;23.478;2023-03-04T03:03:11;9.18;;;6.40;;
9934;SDS011;5006;41.828;23.478;2023-03-04T03:04:17;9.40;;;6.82;;
9934;SDS011;5006;41.828;23.478;2023-03-04T03:05:24;8.95;;;6.88;;
9934;SDS011;5006;41.828;23.478;2023-03-04T03:06:32;8.25;;;6.20;;
9934;SDS011;5006;41.828;23.478;2023-03-04T03:07:37;8.68;;;5.53;;
9934;SDS011;5006;41.828;23.478;2023-03-04T03:08:43;6.43;;;5.40;;
9934;SDS011;5006;41.828;23.478;2023-03-04T03:09:47;7.32;;;5.63;;
9934;SDS011;5006;41.828;23.478;2023-03-04T03:10:54;8.15;;;6.40;;
9934;SDS011;5006;41.828;23.478;2023-03-04T03:12:01;9.10;;;6.40;;
9934;SDS011;5006;41.828;23.478;2023-03-04T03:13:09;8.75;;;6.40;;
9934;SDS011;5006;41.828;23.478;2023-03-04T03:14:14;6.88;;;5.68;;
9934;SDS011;5006;41.828;23.478;2023-03-04T03:15:20;8.50;;;6.32;;
9934;SDS011;5006;41.828;23.478;2023-03-04T03:16:26;6.82;;;5.60;;
9934;SDS011;5006;41.828;23.478;2023-03-04T03:17:31;7.13;;;5.88;;
9934;SDS011;5006;41.828;23.478;2023-03-04T03:18:36;6.22;;;5.30;;
9934;SDS011;5006;41.828;23.478;2023-03-04T03:19:42;7.97;;;5.50;;
9934;SDS011;5006;41.828;23.478;2023-03-04T03:20:47;7.93;;;5.78;;
9934;SDS011;5006;41.828;23.478;2023-03-04T03:21:53;6.10;;;5.00;;
9934;SDS011;5006;41.828;23.478;2023-03-04T03:22:58;6.20;;;4.70;;
9934;SDS011;5006;41.828;23.478;2023-03-04T03:24:03;6.35;;;4.72;;
9934;SDS011;5006;41.828;23.478;2023-03-04T03:25:09;6.18;;;4.45;;
9934;SDS011;5006;41.828;23.478;2023-03-04T03:26:16;4.43;;;4.00;;
9934;SDS011;5006;41.828;23.478;2023-03-04T03:27:21;5.07;;;4.60;;
9934;SDS011;5006;41.828;23.478;2023-03-04T03:28:29;5.20;;;4.70;;
9934;SDS011;5006;41.828;23.478;2023-03-04T03:29:34;6.82;;;5.05;;
9934;SDS011;5006;41.828;23.478;2023-03-04T03:30:40;7.10;;;4.43;;
9934;SDS011;5006;41.828;23.478;2023-03-04T03:31:44;5.80;;;4.60;;
9934;SDS011;5006;41.828;23.478;2023-03-04T03:32:50;5.55;;;4.60;;
9934;SDS011;5006;41.828;23.478;2023-03-04T03:33:55;5.40;;;4.90;;
9934;SDS011;5006;41.828;23.478;2023-03-04T03:35:00;13.77;;;11.82;;
9934;SDS011;5006;41.828;23.478;2023-03-04T03:36:06;14.25;;;12.95;;
9934;SDS011;5006;41.828;23.478;2023-03-04T03:37:12;14.00;;;12.65;;
9934;SDS011;5006;41.828;23.478;2023-03-04T03:38:17;13.43;;;12.15;;
9934;SDS011;5006;41.828;23.478;2023-03-04T03:39:23;9.82;;;8.90;;
9934;SDS011;5006;41.828;23.478;2023-03-04T03:40:28;7.88;;;5.63;;
9934;SDS011;5006;41.828;23.478;2023-03-04T03:41:33;6.05;;;5.03;;
9934;SDS011;5006;41.828;23.478;2023-03-04T03:42:38;6.22;;;4.93;;
9934;SDS011;5006;41.828;23.478;2023-03-04T03:43:44;8.02;;;5.32;;
9934;SDS011;5006;41.828;23.478;2023-03-04T03:44:50;7.15;;;5.30;;
9934;SDS011;5006;41.828;23.478;2023-03-04T03:45:55;6.25;;;5.10;;
9934;SDS011;5006;41.828;23.478;2023-03-04T03:46:59;6.78;;;4.70;;
9934;SDS011;5006;41.828;23.478;2023-03-04T03:48:06;8.32;;;6.93;;
9934;SDS011;5006;41.828;23.478;2023-03-04T03:49:10;8.10;;;7.28;;
9934;SDS011;5006;41.828;23.478;2023-03-04T03:50:16;7.85;;;5.43;;
9934;SDS011;5006;41.828;23.478;2023-03-04T03:51:21;7.78;;;5.15;;
9934;SDS011;5006;41.828;23.478;2023-03-04T03:52:26;8.20;;;5.82;;
9934;SDS011;5006;41.828;23.478;2023-03-04T03:53:31;7.85;;;5.43;;
9934;SDS011;5006;41.828;23.478;2023-03-04T03:54:37;9.13;;;6.00;;
9934;SDS011;5006;41.828;23.478;2023-03-04T03:55:42;7.20;;;6.25;;
9934;SDS011;5006;41.828;23.478;2023-03-04T03:56:47;7.68;;;5.53;;
9934;SDS011;5006;41.828;23.478;2023-03-04T03:57:52;5.90;;;5.15;;
9934;SDS011;5006;41.828;23.478;2023-03-04T03:58:59;7.25;;;5.13;;
9934;SDS011;5006;41.828;23.478;2023-03-04T04:00:05;7.93;;;5.60;;
9934;SDS011;5006;41.828;23.478;2023-03-04T04:01:16;6.50;;;5.63;;
9934;SDS011;5006;41.828;23.478;2023-03-04T04:02:20;9.77;;;5.55;;
9934;SDS011;5006;41.828;23.478;2023-03-04T04:03:26;6.13;;;4.82;;
9934;SDS011;5006;41.828;23.478;2023-03-04T04:04:31;7.65;;;5.32;;
9934;SDS011;5006;41.828;23.478;2023-03-04T04:05:37;7.38;;;5.00;;
9934;SDS011;5006;41.828;23.478;2023-03-04T04:06:41;8.88;;;4.72;;
9934;SDS011;5006;41.828;23.478;2023-03-04T04:07:48;7.20;;;5.28;;
9934;SDS011;5006;41.828;23.478;2023-03-04T04:08:53;6.35;;;5.18;;
9934;SDS011;5006;41.828;23.478;2023-03-04T04:09:58;6.90;;;5.40;;
9934;SDS011;5006;41.828;23.478;2023-03-04T04:11:03;5.72;;;5.13;;
9934;SDS011;5006;41.828;23.478;2023-03-04T04:12:10;6.90;;;5.50;;
9934;SDS011;5006;41.828;23.478;2023-03-04T04:13:16;7.10;;;5.65;;
9934;SDS011;5006;41.828;23.478;2023-03-04T04:14:23;5.88;;;4.95;;
9934;SDS011;5006;41.828;23.478;2023-03-04T04:15:28;9.90;;;5.63;;
9934;SDS011;5006;41.828;23.478;2023-03-04T04:16:35;7.60;;;6.50;;
9934;SDS011;5006;41.828;23.478;2023-03-04T04:17:39;14.60;;;11.60;;
9934;SDS011;5006;41.828;23.478;2023-03-04T04:18:45;20.60;;;16.95;;
9934;SDS011;5006;41.828;23.478;2023-03-04T04:19:49;20.27;;;16.75;;
9934;SDS011;5006;41.828;23.478;2023-03-04T04:20:55;22.50;;;17.63;;
9934;SDS011;5006;41.828;23.478;2023-03-04T04:22:00;15.85;;;12.57;;
9934;SDS011;5006;41.828;23.478;2023-03-04T04:23:06;9.68;;;7.22;;
9934;SDS011;5006;41.828;23.478;2023-03-04T04:24:11;7.13;;;5.57;;
9934;SDS011;5006;41.828;23.478;2023-03-04T04:25:16;6.82;;;5.63;;
9934;SDS011;5006;41.828;23.478;2023-03-04T04:26:21;7.07;;;5.60;;
9934;SDS011;5006;41.828;23.478;2023-03-04T04:27:27;7.13;;;6.38;;
9934;SDS011;5006;41.828;23.478;2023-03-04T04:28:32;6.22;;;5.25;;
9934;SDS011;5006;41.828;23.478;2023-03-04T04:29:39;7.15;;;6.28;;
9934;SDS011;5006;41.828;23.478;2023-03-04T04:30:44;8.52;;;6.18;;
9934;SDS011;5006;41.828;23.478;2023-03-04T04:31:50;7.50;;;5.82;;
9934;SDS011;5006;41.828;23.478;2023-03-04T04:32:54;6.30;;;5.70;;
9934;SDS011;5006;41.828;23.478;2023-03-04T04:34:00;7.32;;;5.88;;
9934;SDS011;5006;41.828;23.478;2023-03-04T04:35:05;7.35;;;6.65;;
9934;SDS011;5006;41.828;23.478;2023-03-04T04:36:12;8.90;;;6.60;;
9934;SDS011;5006;41.828;23.478;2023-03-04T04:37:18;8.07;;;6.95;;
9934;SDS011;5006;41.828;23.478;2023-03-04T04:38:24;9.50;;;6.40;;
9934;SDS011;5006;41.828;23.478;2023-03-04T04:39:29;8.77;;;5.85;;
9934;SDS011;5006;41.828;23.478;2023-03-04T04:40:35;9.85;;;6.03;;
9934;SDS011;5006;41.828;23.478;2023-03-04T04:41:40;8.38;;;6.88;;
9934;SDS011;5006;41.828;23.478;2023-03-04T04:42:47;8.35;;;6.05;;
9934;SDS011;5006;41.828;23.478;2023-03-04T04:43:51;9.02;;;6.70;;
9934;SDS011;5006;41.828;23.478;2023-03-04T04:44:58;8.43;;;6.55;;
9934;SDS011;5006;41.828;23.478;2023-03-04T04:46:03;7.50;;;6.70;;
9934;SDS011;5006;41.828;23.478;2023-03-04T04:47:09;8.05;;;6.53;;
9934;SDS011;5006;41.828;23.478;2023-03-04T04:48:14;7.53;;;6.57;;
9934;SDS011;5006;41.828;23.478;2023-03-04T04:49:38;8.93;;;5.82;;
9934;SDS011;5006;41.828;23.478;2023-03-04T04:50:44;8.65;;;6.70;;
9934;SDS011;5006;41.828;23.478;2023-03-04T04:51:49;7.13;;;5.60;;
9934;SDS011;5006;41.828;23.478;2023-03-04T04:52:55;6.78;;;6.00;;
9934;SDS011;5006;41.828;23.478;2023-03-04T04:53:59;7.28;;;6.30;;
9934;SDS011;5006;41.828;23.478;2023-03-04T04:55:06;8.88;;;5.90;;
9934;SDS011;5006;41.828;23.478;2023-03-04T04:56:11;6.75;;;5.93;;
9934;SDS011;5006;41.828;23.478;2023-03-04T04:57:18;7.63;;;6.00;;
9934;SDS011;5006;41.828;23.478;2023-03-04T04:58:23;7.20;;;5.53;;
9934;SDS011;5006;41.828;23.478;2023-03-04T04:59:28;6.32;;;5.65;;
9934;SDS011;5006;41.828;23.478;2023-03-04T05:00:34;8.32;;;5.85;;
9934;SDS011;5006;41.828;23.478;2023-03-04T05:01:40;8.15;;;5.85;;
9934;SDS011;5006;41.828;23.478;2023-03-04T05:02:45;6.85;;;5.63;;
9934;SDS011;5006;41.828;23.478;2023-03-04T05:03:50;8.02;;;5.47;;
9934;SDS011;5006;41.828;23.478;2023-03-04T05:04:56;8.20;;;5.90;;
9934;SDS011;5006;41.828;23.478;2023-03-04T05:06:02;6.90;;;5.90;;
9934;SDS011;5006;41.828;23.478;2023-03-04T05:07:08;10.63;;;8.65;;
9934;SDS011;5006;41.828;23.478;2023-03-04T05:08:14;9.48;;;7.57;;
9934;SDS011;5006;41.828;23.478;2023-03-04T05:09:19;9.50;;;6.88;;
9934;SDS011;5006;41.828;23.478;2023-03-04T05:10:26;7.93;;;7.03;;
9934;SDS011;5006;41.828;23.478;2023-03-04T05:11:31;17.38;;;14.00;;
9934;SDS011;5006;41.828;23.478;2023-03-04T05:12:36;16.05;;;13.80;;
9934;SDS011;5006;41.828;23.478;2023-03-04T05:13:41;10.23;;;7.80;;
9934;SDS011;5006;41.828;23.478;2023-03-04T05:14:46;10.00;;;7.63;;
9934;SDS011;5006;41.828;23.478;2023-03-04T05:15:53;8.23;;;7.28;;
9934;SDS011;5006;41.828;23.478;2023-03-04T05:17:01;11.68;;;9.63;;
9934;SDS011;5006;41.828;23.478;2023-03-04T05:18:07;13.20;;;11.80;;
9934;SDS011;5006;41.828;23.478;2023-03-04T05:19:12;17.10;;;15.13;;
9934;SDS011;5006;41.828;23.478;2023-03-04T05:20:18;16.52;;;14.82;;
9934;SDS011;5006;41.828;23.478;2023-03-04T05:21:23;18.23;;;15.65;;
9934;SDS011;5006;41.828;23.478;2023-03-04T05:22:30;17.33;;;15.50;;
9934;SDS011;5006;41.828;23.478;2023-03-04T05:23:35;18.63;;;16.48;;
9934;SDS011;5006;41.828;23.478;2023-03-04T05:24:42;16.30;;;12.65;;
9934;SDS011;5006;41.828;23.478;2023-03-04T05:25:47;13.32;;;11.90;;
9934;SDS011;5006;41.828;23.478;2023-03-04T05:26:53;12.73;;;11.32;;
9934;SDS011;5006;41.828;23.478;2023-03-04T05:27:58;13.30;;;11.57;;
9934;SDS011;5006;41.828;23.478;2023-03-04T05:29:05;17.90;;;11.55;;
9934;SDS011;5006;41.828;23.478;2023-03-04T05:30:10;13.20;;;11.30;;
9934;SDS011;5006;41.828;23.478;2023-03-04T05:31:18;12.00;;;10.13;;
9934;SDS011;5006;41.828;23.478;2023-03-04T05:32:22;13.45;;;11.15;;
9934;SDS011;5006;41.828;23.478;2023-03-04T05:33:28;11.15;;;10.05;;
9934;SDS011;5006;41.828;23.478;2023-03-04T05:34:33;9.70;;;8.70;;
9934;SDS011;5006;41.828;23.478;2023-03-04T05:35:40;10.77;;;8.20;;
9934;SDS011;5006;41.828;23.478;2023-03-04T05:36:45;9.98;;;8.30;;
9934;SDS011;5006;41.828;23.478;2023-03-04T05:37:51;8.55;;;6.53;;
9934;SDS011;5006;41.828;23.478;2023-03-04T05:38:56;7.22;;;6.50;;
9934;SDS011;5006;41.828;23.478;2023-03-04T05:40:02;9.57;;;8.15;;
9934;SDS011;5006;41.828;23.478;2023-03-04T05:41:08;10.85;;;8.63;;
9934;SDS011;5006;41.828;23.478;2023-03-04T05:42:13;8.75;;;7.85;;
9934;SDS011;5006;41.828;23.478;2023-03-04T05:43:18;8.65;;;7.40;;
9934;SDS011;5006;41.828;23.478;2023-03-04T05:44:25;9.45;;;7.60;;
9934;SDS011;5006;41.828;23.478;2023-03-04T05:45:30;12.48;;;8.60;;
9934;SDS011;5006;41.828;23.478;2023-03-04T05:46:37;11.32;;;9.82;;
9934;SDS011;5006;41.828;23.478;2023-03-04T05:47:42;13.38;;;10.77;;
9934;SDS011;5006;41.828;23.478;2023-03-04T05:48:48;16.02;;;11.00;;
9934;SDS011;5006;41.828;23.478;2023-03-04T05:49:52;13.10;;;11.65;;
9934;SDS011;5006;41.828;23.478;2023-03-04T05:50:59;14.10;;;11.07;;
9934;SDS011;5006;41.828;23.478;2023-03-04T05:52:04;13.82;;;11.35;;
9934;SDS011;5006;41.828;23.478;2023-03-04T05:53:10;13.48;;;11.45;;
9934;SDS011;5006;41.828;23.478;2023-03-04T05:54:14;12.52;;;11.20;;
9934;SDS011;5006;41.828;23.478;2023-03-04T05:55:20;16.77;;;13.32;;
9934;SDS011;5006;41.828;23.478;2023-03-04T05:56:24;14.38;;;12.73;;
9934;SDS011;5006;41.828;23.478;2023-03-04T05:57:31;14.95;;;13.45;;
9934;SDS011;5006;41.828;23.478;2023-03-04T05:58:36;15.85;;;12.65;;
9934;SDS011;5006;41.828;23.478;2023-03-04T05:59:41;14.85;;;12.98;;
9934;SDS011;5006;41.828;23.478;2023-03-04T06:00:46;13.95;;;12.30;;
9934;SDS011;5006;41.828;23.478;2023-03-04T06:01:53;15.10;;;13.50;;
9934;SDS011;5006;41.828;23.478;2023-03-04T06:02:58;14.57;;;12.80;;
9934;SDS011;5006;41.828;23.478;2023-03-04T06:04:04;13.77;;;12.38;;
9934;SDS011;5006;41.828;23.478;2023-03-04T06:05:11;17.10;;;14.05;;
9934;SDS011;5006;41.828;23.478;2023-03-04T06:06:17;16.42;;;13.55;;
9934;SDS011;5006;41.828;23.478;2023-03-04T06:07:22;16.50;;;13.30;;
9934;SDS011;5006;41.828;23.478;2023-03-04T06:08:28;17.23;;;13.65;;
9934;SDS011;5006;41.828;23.478;2023-03-04T06:09:33;16.42;;;13.32;;
9934;SDS011;5006;41.828;23.478;2023-03-04T06:10:39;14.90;;;13.30;;
9934;SDS011;5006;41.828;23.478;2023-03-04T06:11:45;16.23;;;14.52;;
9934;SDS011;5006;41.828;23.478;2023-03-04T06:12:51;15.70;;;13.45;;
9934;SDS011;5006;41.828;23.478;2023-03-04T06:13:57;14.77;;;13.27;;
9934;SDS011;5006;41.828;23.478;2023-03-04T06:15:02;18.83;;;14.20;;
9934;SDS011;5006;41.828;23.478;2023-03-04T06:16:08;15.95;;;13.38;;
9934;SDS011;5006;41.828;23.478;2023-03-04T06:17:15;15.38;;;13.77;;
9934;SDS011;5006;41.828;23.478;2023-03-04T06:18:20;16.88;;;13.52;;
9934;SDS011;5006;41.828;23.478;2023-03-04T06:19:26;15.82;;;13.13;;
9934;SDS011;5006;41.828;23.478;2023-03-04T06:20:31;15.70;;;13.73;;
9934;SDS011;5006;41.828;23.478;2023-03-04T06:21:36;15.13;;;13.48;;
9934;SDS011;5006;41.828;23.478;2023-03-04T06:22:42;15.52;;;13.93;;
9934;SDS011;5006;41.828;23.478;2023-03-04T06:23:47;16.52;;;14.65;;
9934;SDS011;5006;41.828;23.478;2023-03-04T06:24:53;18.60;;;15.23;;
9934;SDS011;5006;41.828;23.478;2023-03-04T06:25:58;17.15;;;15.45;;
9934;SDS011;5006;41.828;23.478;2023-03-04T06:27:04;15.63;;;13.63;;
9934;SDS011;5006;41.828;23.478;2023-03-04T06:28:09;14.95;;;13.40;;
9934;SDS011;5006;41.828;23.478;2023-03-04T06:29:16;15.98;;;13.82;;
9934;SDS011;5006;41.828;23.478;2023-03-04T06:30:21;16.23;;;13.63;;
9934;SDS011;5006;41.828;23.478;2023-03-04T06:31:28;18.60;;;15.85;;
9934;SDS011;5006;41.828;23.478;2023-03-04T06:32:33;17.92;;;15.02;;
9934;SDS011;5006;41.828;23.478;2023-03-04T06:33:39;19.08;;;15.60;;
9934;SDS011;5006;41.828;23.478;2023-03-04T06:34:45;18.40;;;16.38;;
9934;SDS011;5006;41.828;23.478;2023-03-04T06:35:52;20.05;;;17.83;;
9934;SDS011;5006;41.828;23.478;2023-03-04T06:36:59;22.48;;;19.55;;
9934;SDS011;5006;41.828;23.478;2023-03-04T06:38:04;25.38;;;22.45;;
9934;SDS011;5006;41.828;23.478;2023-03-04T06:39:09;23.38;;;20.15;;
9934;SDS011;5006;41.828;23.478;2023-03-04T06:40:15;19.95;;;17.75;;
9934;SDS011;5006;41.828;23.478;2023-03-04T06:41:21;18.35;;;16.15;;
9934;SDS011;5006;41.828;23.478;2023-03-04T06:42:25;21.35;;;17.75;;